EZY192 VNKT-VQPR
Flight info
| Callsign | EZY192 |
|---|---|
| Flight time | 0h 48m |
| Altitude | 35000 |
| Route | IGRIS1E KIMTI G348 SUBSU DCT TAKTI DCT PRO |
| Aircraft | A20N/M-SDE2E3FGHIRWXY/LB1 |
Departure
| Time | 2026-04-27 19:47 |
|---|---|
| Airport | Tribhuvan International Airport (VNKT) |
Arrival
| Time | 2026-04-27 20:36 |
|---|---|
| Airport | Paro International Airport (VQPR) |
| Time | Latitude | Longitude | Altitude | Speed | Heading |
|---|---|---|---|---|---|
| 2026-04-27 19:26 | 27.70611 | 85.36057 | 4397 ft | 0 kts | 251° |
| 2026-04-27 19:27 | 27.70611 | 85.36058 | 4397 ft | 0 kts | 251° |
| 2026-04-27 19:43 | 27.70609 | 85.36052 | 4397 ft | 2 kts | 251° |
| 2026-04-27 19:43 | 27.70596 | 85.36042 | 4397 ft | 2 kts | 193° |
| 2026-04-27 19:44 | 27.70574 | 85.36047 | 4397 ft | 5 kts | 165° |
| 2026-04-27 19:44 | 27.70522 | 85.36065 | 4397 ft | 11 kts | 162° |
| 2026-04-27 19:44 | 27.70497 | 85.36134 | 4397 ft | 11 kts | 78° |
| 2026-04-27 19:44 | 27.70546 | 85.36198 | 4398 ft | 12 kts | 25° |
| 2026-04-27 19:45 | 27.70567 | 85.36220 | 4398 ft | 0 kts | 62° |
| 2026-04-27 19:45 | 27.70567 | 85.36221 | 4398 ft | 1 kts | 62° |
| 2026-04-27 19:45 | 27.70575 | 85.36237 | 4398 ft | 5 kts | 63° |
| 2026-04-27 19:46 | 27.70589 | 85.36299 | 4399 ft | 10 kts | 103° |
| 2026-04-27 19:46 | 27.70529 | 85.36310 | 4402 ft | 12 kts | 200° |
| 2026-04-27 19:46 | 27.70357 | 85.36234 | 4401 ft | 57 kts | 201° |
| 2026-04-27 19:46 | 27.69780 | 85.35970 | 4396 ft | 119 kts | 202° |
| 2026-04-27 19:47 | 27.68856 | 85.35547 | 4398 ft | 166 kts | 203° |
| 2026-04-27 19:47 | 27.67795 | 85.35059 | 4972 ft | 161 kts | 204° |
| 2026-04-27 19:47 | 27.66750 | 85.34545 | 5503 ft | 168 kts | 210° |
| 2026-04-27 19:47 | 27.65812 | 85.33743 | 6041 ft | 171 kts | 229° |
| 2026-04-27 19:48 | 27.65151 | 85.32586 | 6434 ft | 185 kts | 249° |
| 2026-04-27 19:48 | 27.64889 | 85.31102 | 6744 ft | 203 kts | 271° |
| 2026-04-27 19:48 | 27.65195 | 85.29468 | 6940 ft | 227 kts | 295° |
| 2026-04-27 19:48 | 27.66190 | 85.27985 | 7237 ft | 249 kts | 319° |
| 2026-04-27 19:49 | 27.67710 | 85.26968 | 7834 ft | 260 kts | 341° |
| 2026-04-27 19:49 | 27.69499 | 85.26665 | 8731 ft | 264 kts | 3° |
| 2026-04-27 19:49 | 27.71275 | 85.27163 | 9631 ft | 269 kts | 26° |
| 2026-04-27 19:49 | 27.72765 | 85.28450 | 10494 ft | 274 kts | 50° |
| 2026-04-27 19:50 | 27.73718 | 85.30323 | 11346 ft | 279 kts | 65° |
| 2026-04-27 19:50 | 27.74528 | 85.32327 | 12219 ft | 282 kts | 65° |
| 2026-04-27 19:50 | 27.75347 | 85.34356 | 13061 ft | 286 kts | 68° |
| 2026-04-27 19:50 | 27.75804 | 85.36547 | 13872 ft | 290 kts | 87° |
| 2026-04-27 19:51 | 27.75624 | 85.38822 | 14642 ft | 294 kts | 106° |
| 2026-04-27 19:51 | 27.74808 | 85.40937 | 15399 ft | 297 kts | 124° |
| 2026-04-27 19:51 | 27.73433 | 85.42670 | 16143 ft | 299 kts | 143° |
| 2026-04-27 19:51 | 27.71628 | 85.43841 | 16858 ft | 301 kts | 159° |
| 2026-04-27 19:52 | 27.69680 | 85.44765 | 17517 ft | 307 kts | 156° |
| 2026-04-27 19:52 | 27.67771 | 85.46018 | 17756 ft | 329 kts | 144° |
| 2026-04-27 19:52 | 27.66010 | 85.47787 | 17949 ft | 350 kts | 133° |
| 2026-04-27 19:52 | 27.64510 | 85.50050 | 18137 ft | 370 kts | 121° |
| 2026-04-27 19:53 | 27.62641 | 85.55688 | 18885 ft | 393 kts | 107° |
| 2026-04-27 19:53 | 27.61849 | 85.58649 | 19589 ft | 395 kts | 107° |
| 2026-04-27 19:53 | 27.61044 | 85.61615 | 20273 ft | 397 kts | 107° |
| 2026-04-27 19:54 | 27.60233 | 85.64613 | 20882 ft | 402 kts | 107° |
| 2026-04-27 19:54 | 27.59420 | 85.67637 | 21495 ft | 405 kts | 107° |
| 2026-04-27 19:54 | 27.58429 | 85.70616 | 22057 ft | 409 kts | 115° |
| 2026-04-27 19:54 | 27.57165 | 85.73496 | 22684 ft | 411 kts | 117° |
| 2026-04-27 19:55 | 27.55878 | 85.76400 | 23156 ft | 417 kts | 117° |
| 2026-04-27 19:55 | 27.54584 | 85.79330 | 23733 ft | 420 kts | 117° |
| 2026-04-27 19:55 | 27.53276 | 85.82297 | 24209 ft | 424 kts | 117° |
| 2026-04-27 19:55 | 27.52081 | 85.85334 | 24745 ft | 428 kts | 109° |
| 2026-04-27 19:56 | 27.51305 | 85.88578 | 25223 ft | 432 kts | 101° |
| 2026-04-27 19:56 | 27.50969 | 85.91959 | 25577 ft | 437 kts | 92° |
| 2026-04-27 19:56 | 27.50862 | 85.95404 | 25966 ft | 441 kts | 92° |
| 2026-04-27 19:56 | 27.50737 | 85.98864 | 26396 ft | 443 kts | 92° |
| 2026-04-27 19:57 | 27.50606 | 86.02320 | 26924 ft | 444 kts | 92° |
| 2026-04-27 19:57 | 27.50473 | 86.05800 | 27387 ft | 446 kts | 92° |
| 2026-04-27 19:57 | 27.50339 | 86.09293 | 27868 ft | 446 kts | 92° |
| 2026-04-27 19:57 | 27.50205 | 86.12796 | 28234 ft | 451 kts | 92° |
| 2026-04-27 19:58 | 27.50069 | 86.16337 | 28561 ft | 454 kts | 92° |
| 2026-04-27 19:58 | 27.49931 | 86.19914 | 28770 ft | 460 kts | 92° |
| 2026-04-27 19:58 | 27.49792 | 86.23492 | 28968 ft | 465 kts | 92° |
| 2026-04-27 19:58 | 27.49519 | 86.27170 | 29288 ft | 466 kts | 98° |
| 2026-04-27 19:59 | 27.48917 | 86.30689 | 29814 ft | 463 kts | 102° |
| 2026-04-27 19:59 | 27.48229 | 86.34246 | 30094 ft | 468 kts | 102° |
| 2026-04-27 19:59 | 27.46841 | 86.41503 | 30294 ft | 478 kts | 102° |
| 2026-04-27 20:00 | 27.46139 | 86.45168 | 30538 ft | 479 kts | 102° |
| 2026-04-27 20:00 | 27.45433 | 86.48849 | 30780 ft | 480 kts | 102° |
| 2026-04-27 20:00 | 27.44727 | 86.52515 | 31248 ft | 478 kts | 102° |
| 2026-04-27 20:00 | 27.44024 | 86.56166 | 31642 ft | 477 kts | 102° |
| 2026-04-27 20:01 | 27.43320 | 86.59810 | 32028 ft | 476 kts | 102° |
| 2026-04-27 20:01 | 27.42617 | 86.63446 | 32525 ft | 473 kts | 102° |
| 2026-04-27 20:01 | 27.41917 | 86.67055 | 32920 ft | 472 kts | 102° |
| 2026-04-27 20:01 | 27.41224 | 86.70632 | 33528 ft | 466 kts | 102° |
| 2026-04-27 20:02 | 27.40528 | 86.74211 | 33658 ft | 471 kts | 102° |
| 2026-04-27 20:02 | 27.39826 | 86.77822 | 33784 ft | 474 kts | 102° |
| 2026-04-27 20:02 | 27.39121 | 86.81439 | 34138 ft | 472 kts | 102° |
| 2026-04-27 20:02 | 27.38420 | 86.85034 | 34449 ft | 471 kts | 102° |
| 2026-04-27 20:03 | 27.37716 | 86.88632 | 34771 ft | 469 kts | 102° |
| 2026-04-27 20:03 | 27.37016 | 86.92213 | 34963 ft | 470 kts | 102° |
| 2026-04-27 20:03 | 27.35616 | 86.99360 | 34993 ft | 466 kts | 102° |
| 2026-04-27 20:04 | 27.34217 | 87.06480 | 35000 ft | 466 kts | 102° |
| 2026-04-27 20:04 | 27.33055 | 87.12374 | 34999 ft | 464 kts | 102° |
| 2026-04-27 20:05 | 27.30814 | 87.20346 | 35001 ft | 456 kts | 114° |
| 2026-04-27 20:05 | 27.27746 | 87.26604 | 34996 ft | 460 kts | 122° |
| 2026-04-27 20:06 | 27.24363 | 87.32728 | 34992 ft | 460 kts | 122° |
| 2026-04-27 20:06 | 27.20976 | 87.38877 | 35002 ft | 466 kts | 122° |
| 2026-04-27 20:07 | 27.17538 | 87.45101 | 35002 ft | 473 kts | 122° |
| 2026-04-27 20:07 | 27.14113 | 87.51295 | 35003 ft | 462 kts | 122° |
| 2026-04-27 20:08 | 27.10723 | 87.57417 | 35003 ft | 463 kts | 122° |
| 2026-04-27 20:08 | 27.07351 | 87.63503 | 35002 ft | 460 kts | 122° |
| 2026-04-27 20:09 | 27.03934 | 87.69659 | 35001 ft | 467 kts | 122° |
| 2026-04-27 20:09 | 27.00517 | 87.75804 | 34998 ft | 466 kts | 122° |
| 2026-04-27 20:10 | 26.97089 | 87.81960 | 35001 ft | 464 kts | 122° |
| 2026-04-27 20:10 | 26.93670 | 87.88091 | 34996 ft | 466 kts | 122° |
| 2026-04-27 20:11 | 26.90260 | 87.94197 | 34999 ft | 460 kts | 122° |
| 2026-04-27 20:11 | 26.86870 | 88.00259 | 35000 ft | 463 kts | 122° |
| 2026-04-27 20:12 | 26.84021 | 88.05348 | 35003 ft | 461 kts | 122° |
| 2026-04-27 20:12 | 26.80031 | 88.12464 | 35007 ft | 461 kts | 122° |
| 2026-04-27 20:13 | 26.76648 | 88.18490 | 34995 ft | 455 kts | 122° |
| 2026-04-27 20:13 | 26.73395 | 88.24569 | 35001 ft | 456 kts | 115° |
| 2026-04-27 20:14 | 26.72312 | 88.27892 | 35000 ft | 456 kts | 104° |
| 2026-04-27 20:14 | 26.71807 | 88.31396 | 35001 ft | 456 kts | 93° |
| 2026-04-27 20:14 | 26.71895 | 88.34935 | 35003 ft | 456 kts | 82° |
| 2026-04-27 20:14 | 26.72571 | 88.38398 | 35000 ft | 456 kts | 71° |
| 2026-04-27 20:15 | 26.73807 | 88.41651 | 35005 ft | 455 kts | 60° |
| 2026-04-27 20:15 | 26.75448 | 88.44681 | 34999 ft | 455 kts | 58° |
| 2026-04-27 20:15 | 26.78770 | 88.50715 | 34948 ft | 456 kts | 58° |
| 2026-04-27 20:16 | 26.80429 | 88.53744 | 34701 ft | 456 kts | 58° |
| 2026-04-27 20:16 | 26.82082 | 88.56769 | 34457 ft | 455 kts | 58° |
| 2026-04-27 20:16 | 26.83733 | 88.59792 | 34219 ft | 456 kts | 58° |
| 2026-04-27 20:16 | 26.85388 | 88.62823 | 33669 ft | 458 kts | 58° |
| 2026-04-27 20:17 | 26.87037 | 88.65845 | 32873 ft | 462 kts | 58° |
| 2026-04-27 20:17 | 26.88743 | 88.68974 | 31906 ft | 468 kts | 58° |
| 2026-04-27 20:17 | 26.89862 | 88.71029 | 31414 ft | 467 kts | 58° |
| 2026-04-27 20:17 | 26.91545 | 88.74118 | 30828 ft | 462 kts | 58° |
| 2026-04-27 20:18 | 26.93745 | 88.78162 | 30037 ft | 455 kts | 58° |
| 2026-04-27 20:18 | 26.94854 | 88.80202 | 29640 ft | 452 kts | 58° |
| 2026-04-27 20:18 | 26.96447 | 88.83223 | 29065 ft | 447 kts | 62° |
| 2026-04-27 20:18 | 26.97996 | 88.87468 | 28287 ft | 442 kts | 73° |
| 2026-04-27 20:19 | 26.98498 | 88.89717 | 27890 ft | 439 kts | 79° |
| 2026-04-27 20:19 | 26.98915 | 88.93084 | 27315 ft | 435 kts | 83° |
| 2026-04-27 20:19 | 26.99261 | 88.96443 | 26786 ft | 430 kts | 83° |
| 2026-04-27 20:19 | 26.99611 | 88.99748 | 26266 ft | 425 kts | 83° |
| 2026-04-27 20:20 | 26.99959 | 89.03017 | 25788 ft | 420 kts | 83° |
| 2026-04-27 20:20 | 27.00302 | 89.06260 | 25180 ft | 418 kts | 83° |
| 2026-04-27 20:20 | 27.00643 | 89.09505 | 24510 ft | 418 kts | 83° |
| 2026-04-27 20:20 | 27.00986 | 89.12780 | 24144 ft | 429 kts | 83° |
| 2026-04-27 20:21 | 27.01332 | 89.16100 | 23801 ft | 430 kts | 83° |
| 2026-04-27 20:21 | 27.01679 | 89.19433 | 23192 ft | 429 kts | 83° |
| 2026-04-27 20:21 | 27.02023 | 89.22748 | 22135 ft | 428 kts | 83° |
| 2026-04-27 20:21 | 27.02363 | 89.26037 | 21366 ft | 420 kts | 83° |
| 2026-04-27 20:22 | 27.02693 | 89.29235 | 20891 ft | 406 kts | 83° |
| 2026-04-27 20:22 | 27.03015 | 89.32365 | 20631 ft | 405 kts | 83° |
| 2026-04-27 20:22 | 27.03339 | 89.35522 | 20333 ft | 411 kts | 83° |
| 2026-04-27 20:22 | 27.03665 | 89.38701 | 19998 ft | 408 kts | 83° |
| 2026-04-27 20:23 | 27.03988 | 89.41851 | 19431 ft | 406 kts | 83° |
| 2026-04-27 20:23 | 27.04483 | 89.44978 | 18389 ft | 411 kts | 72° |
| 2026-04-27 20:23 | 27.05686 | 89.47849 | 17498 ft | 404 kts | 55° |
| 2026-04-27 20:23 | 27.07526 | 89.50152 | 16952 ft | 393 kts | 38° |
| 2026-04-27 20:24 | 27.09838 | 89.51678 | 16680 ft | 379 kts | 20° |
| 2026-04-27 20:24 | 27.12382 | 89.52295 | 16426 ft | 376 kts | 1° |
| 2026-04-27 20:24 | 27.14995 | 89.52070 | 16175 ft | 379 kts | 350° |
| 2026-04-27 20:24 | 27.17607 | 89.51579 | 15664 ft | 382 kts | 350° |
| 2026-04-27 20:25 | 27.20248 | 89.51162 | 14997 ft | 383 kts | 352° |
| 2026-04-27 20:25 | 27.22901 | 89.50879 | 14371 ft | 381 kts | 355° |
| 2026-04-27 20:25 | 27.25514 | 89.50700 | 14006 ft | 371 kts | 356° |
| 2026-04-27 20:25 | 27.28059 | 89.50517 | 13540 ft | 363 kts | 351° |
| 2026-04-27 20:26 | 27.30477 | 89.49841 | 13172 ft | 354 kts | 338° |
| 2026-04-27 20:26 | 27.32678 | 89.48622 | 12904 ft | 352 kts | 327° |
| 2026-04-27 20:26 | 27.34604 | 89.46955 | 12693 ft | 349 kts | 311° |
| 2026-04-27 20:26 | 27.35872 | 89.44634 | 12780 ft | 353 kts | 289° |
| 2026-04-27 20:27 | 27.36287 | 89.41903 | 13217 ft | 358 kts | 268° |
| 2026-04-27 20:27 | 27.35790 | 89.39173 | 13952 ft | 358 kts | 247° |
| 2026-04-27 20:27 | 27.34490 | 89.36808 | 14727 ft | 358 kts | 231° |
| 2026-04-27 20:27 | 27.32776 | 89.34765 | 15368 ft | 361 kts | 219° |
| 2026-04-27 20:28 | 27.30600 | 89.33358 | 16023 ft | 361 kts | 199° |
| 2026-04-27 20:28 | 27.28209 | 89.32860 | 16177 ft | 346 kts | 180° |
| 2026-04-27 20:28 | 27.25878 | 89.33325 | 15906 ft | 339 kts | 158° |
| 2026-04-27 20:28 | 27.24530 | 89.34174 | 15692 ft | 335 kts | 142° |
| 2026-04-27 20:29 | 27.22671 | 89.36903 | 14866 ft | 339 kts | 110° |
| 2026-04-27 20:29 | 27.22295 | 89.39507 | 14270 ft | 341 kts | 84° |
| 2026-04-27 20:29 | 27.22973 | 89.42010 | 13906 ft | 332 kts | 57° |
| 2026-04-27 20:29 | 27.24540 | 89.43819 | 13683 ft | 321 kts | 31° |
| 2026-04-27 20:30 | 27.26574 | 89.44701 | 13335 ft | 308 kts | 6° |
| 2026-04-27 20:30 | 27.28678 | 89.44750 | 12926 ft | 293 kts | 359° |
| 2026-04-27 20:30 | 27.30672 | 89.44795 | 12367 ft | 288 kts | 3° |
| 2026-04-27 20:30 | 27.32683 | 89.45072 | 11297 ft | 298 kts | 11° |
| 2026-04-27 20:31 | 27.34673 | 89.45806 | 10360 ft | 302 kts | 14° |
| 2026-04-27 20:31 | 27.36714 | 89.45814 | 9582 ft | 292 kts | 335° |
| 2026-04-27 20:31 | 27.38366 | 89.44629 | 9280 ft | 273 kts | 321° |
| 2026-04-27 20:31 | 27.39797 | 89.43298 | 9153 ft | 261 kts | 319° |
| 2026-04-27 20:32 | 27.41167 | 89.42002 | 9001 ft | 252 kts | 318° |
| 2026-04-27 20:32 | 27.42317 | 89.40621 | 8986 ft | 232 kts | 303° |
| 2026-04-27 20:32 | 27.42914 | 89.39066 | 9134 ft | 202 kts | 282° |
| 2026-04-27 20:32 | 27.43117 | 89.37493 | 9534 ft | 208 kts | 276° |
| 2026-04-27 20:33 | 27.43358 | 89.35887 | 9980 ft | 207 kts | 285° |
| 2026-04-27 20:33 | 27.44035 | 89.34461 | 10439 ft | 212 kts | 314° |
| 2026-04-27 20:33 | 27.45356 | 89.33737 | 10586 ft | 217 kts | 355° |
| 2026-04-27 20:33 | 27.46738 | 89.34312 | 10529 ft | 221 kts | 46° |
| 2026-04-27 20:34 | 27.47189 | 89.35897 | 10590 ft | 220 kts | 101° |
| 2026-04-27 20:34 | 27.46439 | 89.37410 | 10528 ft | 227 kts | 132° |
| 2026-04-27 20:34 | 27.45342 | 89.38705 | 9911 ft | 232 kts | 135° |
| 2026-04-27 20:34 | 27.44206 | 89.39975 | 9121 ft | 230 kts | 137° |
| 2026-04-27 20:35 | 27.42897 | 89.40981 | 8352 ft | 227 kts | 155° |
| 2026-04-27 20:35 | 27.41493 | 89.41743 | 7557 ft | 224 kts | 152° |
| 2026-04-27 20:35 | 27.40191 | 89.42558 | 7335 ft | 186 kts | 152° |
| 2026-04-27 20:35 | 27.39465 | 89.43016 | 7335 ft | 61 kts | 150° |
| 2026-04-27 20:36 | 27.39359 | 89.43055 | 7333 ft | 1 kts | 189° |
| 2026-04-27 20:36 | 27.39354 | 89.43049 | 7333 ft | 1 kts | 231° |
| 2026-04-27 20:36 | 27.39352 | 89.43040 | 7333 ft | 2 kts | 251° |
| 2026-04-27 20:36 | 27.39356 | 89.43029 | 7333 ft | 2 kts | 296° |
| 2026-04-27 20:37 | 27.39366 | 89.43017 | 7333 ft | 3 kts | 315° |
| 2026-04-27 20:37 | 27.39435 | 89.42940 | 7334 ft | 21 kts | 317° |
| 2026-04-27 20:37 | 27.39562 | 89.42849 | 7334 ft | 22 kts | 330° |
| 2026-04-27 20:37 | 27.39699 | 89.42759 | 7333 ft | 23 kts | 329° |
| 2026-04-27 20:38 | 27.39843 | 89.42670 | 7333 ft | 24 kts | 331° |
| 2026-04-27 20:38 | 27.39989 | 89.42576 | 7333 ft | 24 kts | 329° |
| 2026-04-27 20:38 | 27.40132 | 89.42486 | 7333 ft | 22 kts | 330° |
| 2026-04-27 20:38 | 27.40270 | 89.42398 | 7333 ft | 23 kts | 330° |
| 2026-04-27 20:39 | 27.40412 | 89.42307 | 7333 ft | 24 kts | 330° |
| 2026-04-27 20:39 | 27.40536 | 89.42227 | 7333 ft | 10 kts | 329° |
| 2026-04-27 20:39 | 27.40535 | 89.42174 | 7332 ft | 5 kts | 240° |
| 2026-04-27 20:39 | 27.40526 | 89.42155 | 7332 ft | 0 kts | 241° |